Airfield :
LOGIN :

Register | Disclaimer

   EN    FR    IT 

 










Legend :    VFR   Marginal VFR   IFR   Intensive IFR   Very Intensive IFR
Visi :
Ceiling :
>= 8 km
>= 3000ft
5 to 8 km
1000 to 3000 ft
1500m to 5 km
500 to 1000 ft
800 to 1500m
200 to 500 ft
< 800m
< 200 ft
Symbols :   Thunderstorms  Fog  Heavy snow  Heavy precipitations  Wind > 20 kt
SIGMETs :     Misc.  Thunderstorms  Icing  Turbulence  Mountain Waves  Volcanic Ashes






- Airport Elevation : 527 ft
- IATA code : DBV


LDDU - Dubrovnik

CURRENT METAR :
  • 282330Z 08006KT CAVOK 18/14 Q1015

EXPIRED METARs :
  • 282300Z 07006KT CAVOK 18/13 Q1015
  • 282230Z 09006KT 070V130 CAVOK 18/14 Q1015
  • 282200Z 10004KT CAVOK 17/14 Q1015 NOSIG
  • 282130Z 09006KT CAVOK 17/14 Q1014 NOSIG
  • 282100Z 10005KT CAVOK 17/15 Q1014 NOSIG
  • 282030Z 09006KT CAVOK 17/15 Q1014 NOSIG
  • 282000Z 06005KT CAVOK 19/13 Q1014 NOSIG
  • 281930Z 34003KT 290V020 CAVOK 19/14 Q1015 NOSIG
  • 281900Z VRB01KT CAVOK 20/13 Q1014 NOSIG

TAF TAF LDDU
Valid from the 28 at 18:00 until the 29 at 18:00 UTC


281725Z 2818/2918 04008KT CAVOK TX22/2912Z TN16/2903Z
PROB30
TEMPO 2822/2904 TS FEW030CB SCT050
PROB30
TEMPO 2909/2915 -TSRA FEW025CB
TEMPO 2914/2918 29008KT



MET'MAP, your aeronautical weather chart ! - Copyright ORBIFLY December 2007 - Disclaimer

ORBIFLY MET'MAP TEAM :

Programming & Development : Alexandra Zaïnal
Original concept : Baudouin d'Aumeries
Technical & hardware support : Manuel Goepfert
Assistance : Marc-Olivier Méhu




SOURCES & CREDITS :

   NOAA